Portada
METAR-TAF:

METAR-TAF

Aeropuertos :

Aeropuerto Internacional Enrique Malek

David, Panamá

latitud: 08-24N, longitud: 082-25W, altitud: 29 m

Observación

El informe se hizo hace 39 minutos, a las 15:00 UTC
Viento calma
Temperatura 28°C
Humedad 84%
Presión 1009 hPa
Visibilidad 10 km o más
Escasas nubes a una altura de 2000 ft

METAR: MPDA 161500Z 00000KT 9999 FEW020 28/25 Q1009

Hora: 10:39 (15:39 UTC)

Pronóstico

El informe se hizo hace 5 horas y 9 minutos, a las 10:30 UTC
Pronóstico válido del 16 a las 12 UTC al 16 a las 24 UTC
Viento 8 kt del sur-suroeste
Nubes dispersas a una altura de 1500 ft, Cumulonimbus.
Cielo nuboso a una altura de 10000 ft
Temporalmente
del 16 a las 18 UTC al 16 a las 20 UTC
Visibilidad: 7000 m
Nubes dispersas a una altura de 1600 ft, Cumulonimbus.
Cielo nuboso a una altura de 7000 ft
tormenta, lluvia

TAF: MPDA 161030Z 1612/1624 20008KT SCT015CB BKN100 TEMPO 1618/1620 7000 TSRA SCT016CB BKN070

Observaciones y pronósticos meteorológicos de más de 4000 aeropuertos (mensajes METAR y TAF).

Los puntos amarillos y rojos representan las estaciones disponibles.

Ponga el ratón en el punto deseado para ver el nombre de la estación.

Haga clic para ver las observaciones y los pronósticos meteorológicos.

Para cambiar el mapa : haga clic en los botones verdes con una cruz de color negro para hacer un zoom, en el botón verde con un guión para alejar o en las flechas verdes para mapas adyacentes.


METAR-TAF: